PH-0041 weather

Public forecast

Using degrees Celsius for public forecast. Weather courtesy of forecast.io.

Closest aviation weather report (METAR) to Philippine Stock Exchange East Tower Heliport

Closest report is Ninoy Aquino International Airport, 5.1 nm (9.4 km) SSW. Retrieved 2020/08/15 19:00 UTC (46 minutes ago):

RPLL 151900Z AUTO 06003KT 9000 FEW007/// SCT020/// BKN230/// 26/25 Q1008

Closest aviation forecast (TAF) to Philippine Stock Exchange East Tower Heliport

Closest forecast is Ninoy Aquino International Airport, 5.1 nm (9.4 km) SSW. Retrieved 2020/08/15 18:21 UTC (1 hour ago):

TAF RPLL 151700Z 1518/1624 VRB03KT 9999 FEW022 BKN100 TX32/1606Z TN24/1521Z TEMPO 1518/1524 35007KT 9000 -SHRA FEW020CB SCT022 BKN100 TEMPO 1600/1606 28008KT FEW020CB FEW022 BKN100